Latest Weather Observations for Lombadina

IDW60801

Issued at 5:05 pm WST Tuesday 2 September 2014 (issued every 30 minutes, with the page automatically refreshed every 10 minutes)

About weather observations | Map of weather stations | Latest weather observations for WA | Other Formats
Station Details ID: 503016 Name: LOMBADINA AIRSTRIP Lat: -16.52 Lon: 122.92 Height: 42.0 m
Data from the previous 72 hours. | See also: Recent months for locations in Western Australia
Date/Time
WST
Temp
°C
App
Temp
°C
Dew
Point
Rel
Hum
%
Delta-T
°C
Wind Press
QNH
hPa
Press
MSL
hPa
Rain
since 9 am
mm
Dir
 
Spd
km/h
Gust
km/h
Spd
kts
Gust
kts
02/05:00pm 26.8 27.9 17.1 55 6.1 WNW 7 9 4 5 1013.1 1012.9 0.0
02/04:30pm 27.5 28.4 16.5 51 6.8 WNW 7 11 4 6 1013.2 1013.0 0.0
02/04:00pm 28.3 29.1 16.3 48 7.4 WNW 7 13 4 7 1013.2 1013.0 0.0
02/03:30pm 28.7 28.5 14.7 42 8.5 WNW 9 15 5 8 1013.1 1012.9 0.0
02/03:00pm 29.9 28.2 11.2 31 10.8 NW 11 17 6 9 1013.1 1012.9 0.0
02/02:30pm 29.6 27.8 10.7 31 10.8 NW 11 15 6 8 1013.1 1012.9 0.0
02/02:00pm 29.9 28.3 10.1 29 11.2 WNW 9 15 5 8 1013.4 1013.2 0.0
02/01:30pm 30.3 28.8 11.9 32 10.8 NNW 11 15 6 8 1013.9 1013.7 0.0
02/01:00pm 30.2 28.8 12.1 32 10.6 NW 11 17 6 9 1014.3 1014.1 0.0
02/12:30pm 32.0 29.2 2.1 15 15.0 ESE 6 11 3 6 1014.6 1014.4 0.0
02/12:00pm 30.7 27.9 2.9 17 14.0 ESE 7 17 4 9 1014.9 1014.7 0.0
02/11:30am 30.2 27.5 7.3 23 12.4 E 11 20 6 11 1015.3 1015.1 0.0
02/11:00am 29.7 28.4 9.9 29 11.2 E 7 15 4 8 1015.7 1015.5 0.0
02/10:30am 29.0 27.8 9.7 30 10.8 SE 6 11 3 6 1016.1 1015.9 0.0
02/10:00am 28.3 27.1 9.7 31 10.4 SE 6 11 3 6 1016.5 1016.3 0.0
02/09:30am 28.2 27.0 9.5 31 10.4 ESE 6 9 3 5 1016.7 1016.5 0.0
02/09:00am 27.2 26.4 11.1 36 9.1 S 6 11 3 6 1016.7 1016.5 0.2
02/08:30am 25.8 26.3 14.9 51 6.6 E 6 9 3 5 1016.6 1016.4 0.2
02/08:00am 24.6 25.5 16.0 58 5.2 E 6 11 3 6 1016.4 1016.2 0.2
02/07:30am 22.4 23.3 13.9 58 5.0 ESE 2 6 1 3 1016.2 1016.0 0.2
02/07:00am 19.8 19.9 13.8 68 3.4 SSE 6 7 3 4 1016.2 1016.0 0.2
02/06:59am 19.8 19.9 13.8 68 3.5 SSE 6 7 3 4 1016.2 1016.0 0.2
02/06:30am 14.7 14.4 12.8 88 1.0 ESE 6 9 3 5 1015.8 1015.6 0.2
02/06:00am 13.6 13.8 12.0 90 0.9 ENE 2 6 1 3 1015.5 1015.3 0.2
02/05:30am 13.5 13.3 11.7 89 1.0 E 4 7 2 4 1015.3 1015.1 0.2
02/05:00am 13.5 13.5 11.0 85 1.3 E 2 4 1 2 1014.8 1014.6 0.2
02/04:30am 13.6 12.6 10.2 80 1.8 E 6 7 3 4 1014.6 1014.4 0.2
02/04:00am 14.7 14.7 11.1 79 1.9 ENE 2 4 1 2 1014.5 1014.3 0.2
02/03:30am 14.3 14.3 11.2 81 1.6 NE 2 7 1 4 1014.1 1013.9 0.2
02/03:00am 14.6 14.6 11.0 79 1.9 NNE 2 4 1 2 1013.9 1013.7 0.2
02/02:30am 16.1 16.3 12.9 81 1.8 SSW 4 6 2 3 1013.7 1013.5 0.2
02/02:00am 16.1 16.1 13.5 84 1.5 SSW 6 7 3 4 1013.8 1013.6 0.2
02/01:30am 17.1 17.4 14.5 85 1.5 SSW 6 9 3 5 1013.8 1013.6 0.2
02/01:00am 16.9 17.4 15.0 88 1.1 SW 6 9 3 5 1014.0 1013.8 0.2
02/12:30am 17.8 18.5 15.5 86 1.4 SW 6 9 3 5 1014.2 1014.0 0.2
02/12:00am 18.4 18.9 15.1 81 1.9 SSW 6 11 3 6 1014.5 1014.3 0.2
 
Date/Time
WST
Temp
°C
App
Temp
°C
Dew
Point
Rel
Hum
%
Delta-T
°C
Wind Press
QNH
hPa
Press
MSL
hPa
Rain
since 9 am
mm
Dir
 
Spd
km/h
Gust
km/h
Spd
kts
Gust
kts
01/11:30pm 18.2 18.9 16.0 87 1.3 SW 7 11 4 6 1014.7 1014.5 0.0
01/11:00pm 19.0 19.8 16.4 85 1.6 SW 7 11 4 6 1014.6 1014.4 0.0
01/10:30pm 19.2 20.2 16.8 86 1.5 SW 7 11 4 6 1014.6 1014.4 0.0
01/10:00pm 19.2 20.4 17.3 89 1.2 SW 7 11 4 6 1014.7 1014.5 0.0
01/09:30pm 18.8 20.2 17.7 93 0.7 SW 7 13 4 7 1014.7 1014.5 0.0
01/09:00pm 19.1 20.6 17.7 92 0.9 SW 6 9 3 5 1014.9 1014.7 0.0
01/08:30pm 19.7 21.5 18.4 92 0.8 WSW 6 11 3 6 1015.0 1014.8 0.0
01/08:00pm 19.9 21.7 18.2 90 1.1 WSW 6 9 3 5 1015.0 1014.8 0.0
01/07:30pm 20.3 22.2 18.5 89 1.1 WSW 6 9 3 5 1014.9 1014.7 0.0
01/07:00pm 20.7 22.3 17.9 84 1.7 WSW 6 11 3 6 1014.6 1014.4 0.0
01/06:30pm 21.6 22.7 17.2 76 2.7 WSW 7 11 4 6 1014.4 1014.2 0.0
01/06:00pm 22.2 23.0 15.8 67 3.8 W 6 9 3 5 1014.1 1013.9 0.0
01/05:30pm 23.8 24.1 14.4 55 5.6 W 6 7 3 4 1013.9 1013.7 0.0
01/05:00pm 26.2 26.6 14.7 49 6.9 WNW 6 11 3 6 1013.7 1013.5 0.0
01/04:30pm 27.2 27.3 14.4 45 7.7 NW 7 11 4 6 1013.6 1013.4 0.0
01/04:00pm 28.0 27.8 14.6 44 8.1 WNW 9 13 5 7 1013.5 1013.3 0.0
01/03:30pm 27.0 26.7 14.5 46 7.5 WNW 9 13 5 7 1013.5 1013.3 0.0
01/03:00pm 27.8 28.2 16.3 49 7.1 NW 9 15 5 8 1013.4 1013.2 0.0
01/02:30pm 27.7 27.3 15.1 46 7.7 NW 11 17 6 9 1013.5 1013.3 0.0
01/02:00pm 27.9 27.1 15.0 45 7.8 NW 13 19 7 10 1013.5 1013.3 0.0
01/01:30pm 28.1 27.4 15.3 45 7.8 NW 13 17 7 9 1013.9 1013.7 0.0
01/01:00pm 28.5 28.8 17.0 49 7.2 NW 11 17 6 9 1014.2 1014.0 0.0
01/12:30pm 28.8 28.2 15.6 44 8.1 NW 13 19 7 10 1014.7 1014.5 0.0
01/12:00pm 28.8 27.0 10.8 32 10.3 WNW 11 17 6 9 1015.0 1014.8 0.0
01/11:30am 29.9 29.3 11.6 32 10.6 ENE 6 11 3 6 1015.4 1015.2 0.0
01/11:00am 29.4 27.7 9.9 29 11.0 ENE 9 13 5 7 1015.8 1015.6 0.0
01/10:30am 28.5 27.4 8.3 28 11.0 ESE 4 9 2 5 1016.1 1015.9 0.0
01/10:00am 27.9 26.6 9.1 30 10.4 E 6 11 3 6 1016.5 1016.3 0.0
01/09:30am 27.5 26.2 10.1 33 9.7 ENE 7 13 4 7 1016.6 1016.4 0.0
01/09:00am 26.9 25.7 10.3 35 9.3 ESE 7 11 4 6 1016.6 1016.4 0.0
01/08:30am 25.4 24.6 11.7 42 7.8 E 7 13 4 7 1016.4 1016.2 0.0
01/08:00am 24.1 24.7 15.9 60 5.0 E 7 9 4 5 1016.0 1015.8 0.0
01/07:30am 22.9 24.4 15.7 64 4.3 ESE 2 6 1 3 1015.6 1015.4 0.0
01/07:00am 18.9 19.9 15.3 79 2.1 ESE 4 7 2 4 1015.3 1015.1 0.0
01/06:30am 15.1 14.6 12.2 83 1.6 ESE 6 9 3 5 1015.1 1014.9 0.0
01/06:00am 13.6 13.6 12.3 92 0.7 ESE 4 7 2 4 1014.8 1014.6 0.0
01/05:30am 12.8 12.2 11.7 93 0.6 ESE 6 9 3 5 1014.6 1014.4 0.0
01/05:00am 13.2 13.1 12.0 92 0.6 ESE 4 7 2 4 1014.3 1014.1 0.0
01/04:30am 14.1 14.7 13.0 93 0.6 S 2 6 1 3 1013.9 1013.7 0.0
01/04:00am 15.1 15.6 13.9 92 0.7 SW 4 7 2 4 1013.6 1013.4 0.0
01/03:30am 15.7 16.1 14.8 94 0.5 SW 6 7 3 4 1013.5 1013.3 0.0
01/03:00am 16.4 17.1 15.5 94 0.5 SW 6 9 3 5 1013.4 1013.2 0.0
01/02:30am 17.3 18.3 16.8 97 0.3 SW 7 11 4 6 1013.3 1013.1 0.0
01/02:24am 17.4 18.3 16.5 94 0.5 SSW 7 11 4 6 1013.3 1013.1 0.0
01/02:00am 17.1 18.2 16.6 97 0.3 SW 6 9 3 5 1013.3 1013.1 0.0
01/01:53am 17.2 18.1 16.1 93 0.7 SW 6 9 3 5 1013.3 1013.1 0.0
01/01:40am 17.6 18.9 17.2 97 0.2 SW 6 9 3 5 1013.3 1013.1 0.0
01/01:30am 17.6 18.9 17.0 96 0.4 SW 6 9 3 5 1013.3 1013.1 0.0
01/01:23am 17.1 18.1 16.3 95 0.5 SW 6 7 3 4 1013.2 1013.0 0.0
01/01:00am 17.5 18.7 16.8 96 0.4 SW 6 7 3 4 1013.4 1013.2 0.0
01/12:30am 17.7 19.0 17.0 96 0.4 SW 6 9 3 5 1013.3 1013.1 0.0
01/12:00am 18.0 19.1 17.0 94 0.6 SW 7 11 4 6 1013.5 1013.3 0.0
 
Date/Time
WST
Temp
°C
App
Temp
°C
Dew
Point
Rel
Hum
%
Delta-T
°C
Wind Press
QNH
hPa
Press
MSL
hPa
Rain
since 9 am
mm
Dir
 
Spd
km/h
Gust
km/h
Spd
kts
Gust
kts
31/11:30pm 18.1 19.3 17.3 95 0.5 SW 7 11 4 6 1013.6 1013.4 0.0
31/11:00pm 18.1 19.4 17.5 96 0.4 SW 7 11 4 6 1013.7 1013.5 0.0
31/10:30pm 18.3 19.7 17.4 94 0.5 SW 6 7 3 4 1013.7 1013.5 0.0
31/10:00pm 18.5 20.0 17.6 94 0.5 SW 6 9 3 5 1013.7 1013.5 0.0
31/09:30pm 18.7 20.8 18.0 96 0.4 W 4 7 2 4 1013.7 1013.5 0.0
31/09:00pm 17.8 19.3 16.7 93 0.7 WSW 4 6 2 3 1013.7 1013.5 0.0
31/08:30pm 18.0 19.0 16.4 90 1.0 WSW 6 7 3 4 1013.6 1013.4 0.0
31/08:00pm 17.9 19.1 16.0 89 1.1 W 4 7 2 4 1013.7 1013.5 0.0
31/07:30pm 18.9 20.1 15.8 82 1.8 WNW 4 6 2 3 1013.6 1013.4 0.0
31/07:00pm 20.4 21.6 16.8 80 2.2 WNW 6 7 3 4 1013.4 1013.2 0.0
31/06:30pm 20.2 21.4 15.8 76 2.6 W 4 7 2 4 1013.3 1013.1 0.0
31/06:00pm 21.2 22.1 16.0 72 3.1 W 6 7 3 4 1013.1 1012.9 0.0
31/05:30pm 23.3 24.7 16.3 64 4.3 W 4 7 2 4 1013.0 1012.8 0.0
31/05:00pm 25.1 26.3 15.8 56 5.7 WNW 4 7 2 4 1012.9 1012.7 0.0
31/04:30pm 25.8 25.7 14.9 51 6.6 NW 9 11 5 6 1012.8 1012.6 0.0
31/04:00pm 26.7 25.8 12.6 41 8.2 NW 9 13 5 7 1012.6 1012.4 0.0
31/03:30pm 28.2 27.1 10.8 33 9.9 NW 7 11 4 6 1012.5 1012.3 0.0
31/03:00pm 28.5 26.7 9.6 30 10.6 WNW 9 13 5 7 1012.6 1012.4 0.0
31/02:30pm 28.2 27.2 12.3 37 9.3 WNW 9 13 5 7 1012.7 1012.5 0.0
31/02:00pm 28.9 27.5 11.0 33 10.2 WNW 9 13 5 7 1012.9 1012.7 0.0
31/01:30pm 28.6 27.0 11.7 35 9.8 NNW 11 15 6 8 1013.2 1013.0 0.0
31/01:00pm 28.2 26.9 11.3 35 9.7 NW 9 17 5 9 1013.6 1013.4 0.0
31/12:30pm 29.4 26.0 1.8 17 13.6 NW 9 20 5 11 1014.1 1013.9 0.0
31/12:00pm 29.2 26.4 3.1 19 13.1 SE 7 13 4 7 1014.4 1014.2 0.0
31/11:30am 29.5 27.1 6.8 24 12.2 E 9 15 5 8 1014.7 1014.5 0.0
31/11:00am 28.1 26.6 8.3 28 10.8 E 6 11 3 6 1015.0 1014.8 0.0
31/10:30am 27.7 26.4 10.1 33 9.9 ENE 7 11 4 6 1015.5 1015.3 0.0
31/10:00am 26.5 25.7 11.0 38 8.8 E 6 13 3 7 1015.8 1015.6 0.0
31/09:30am 26.2 25.2 11.0 38 8.6 E 7 13 4 7 1016.0 1015.8 0.0
31/09:00am 25.7 25.0 12.0 42 7.8 E 7 13 4 7 1015.9 1015.7 0.0
31/08:30am 25.1 24.0 9.8 38 8.4 E 6 9 3 5 1015.8 1015.6 0.0
31/08:00am 23.9 23.5 11.0 44 7.2 ESE 4 7 2 4 1015.7 1015.5 0.0
31/07:30am 22.8 23.2 13.6 56 5.3 E 4 6 2 3 1015.6 1015.4 0.0
31/07:00am 17.9 18.2 13.5 75 2.5 E 4 6 2 3 1015.3 1015.1 0.0
31/06:30am 14.6 14.8 11.9 84 1.5 E 2 6 1 3 1015.1 1014.9 0.0
31/06:00am 12.7 12.1 10.5 86 1.1 ENE 4 6 2 3 1014.6 1014.4 0.0
31/05:30am 13.1 12.4 11.3 89 1.0 NE 6 9 3 5 1014.5 1014.3 0.0
31/05:00am 12.2 11.6 10.5 89 0.9 ENE 4 7 2 4 1014.0 1013.8 0.0
31/04:30am 12.8 12.5 11.3 91 0.8 SE 4 7 2 4 1013.9 1013.7 0.0
31/04:00am 13.6 14.3 12.2 91 0.8 CALM 0 2 0 1 1013.8 1013.6 0.0
31/03:30am 14.5 14.8 13.3 92 0.7 SW 4 6 2 3 1013.7 1013.5 0.0
31/03:00am 14.5 14.8 13.5 94 0.6 SW 4 7 2 4 1013.6 1013.4 0.0
31/02:30am 14.8 15.2 13.7 93 0.6 WSW 4 7 2 4 1013.5 1013.3 0.0
31/02:00am 15.4 16.1 14.4 94 0.6 SW 4 7 2 4 1013.5 1013.3 0.0
31/01:30am 15.7 16.1 14.7 94 0.6 SW 6 7 3 4 1013.6 1013.4 0.0
31/01:00am 16.7 17.4 15.6 93 0.6 SW 6 9 3 5 1013.9 1013.7 0.0
31/12:30am 17.0 17.9 16.1 94 0.5 SSW 6 7 3 4 1014.0 1013.8 0.0
31/12:00am 17.5 18.6 16.7 95 0.5 SSW 6 9 3 5 1014.2 1014.0 0.0
 
Date/Time
WST
Temp
°C
App
Temp
°C
Dew
Point
Rel
Hum
%
Delta-T
°C
Wind Press
QNH
hPa
Press
MSL
hPa
Rain
since 9 am
mm
Dir
 
Spd
km/h
Gust
km/h
Spd
kts
Gust
kts
30/11:30pm 18.0 19.1 17.1 94 0.5 SW 7 11 4 6 1014.3 1014.1 0.0
30/11:00pm 18.1 19.3 17.4 96 0.4 SSW 7 11 4 6 1014.5 1014.3 0.0
30/10:30pm 18.2 19.3 17.2 94 0.6 SW 7 11 4 6 1014.5 1014.3 0.0
30/10:00pm 17.7 19.0 17.2 97 0.3 SW 6 11 3 6 1014.6 1014.4 0.0
30/09:30pm 17.3 18.4 16.5 95 0.5 SW 6 9 3 5 1014.8 1014.6 0.0
30/09:00pm 17.3 18.6 16.2 93 0.7 W 4 6 2 3 1014.9 1014.7 0.0
30/08:30pm 18.2 19.9 17.1 93 0.7 WNW 4 6 2 3 1014.9 1014.7 0.0
30/08:00pm 19.1 21.1 17.9 93 0.7 WNW 4 6 2 3 1014.7 1014.5 0.0
30/07:30pm 18.4 20.0 16.8 90 1.0 W 4 6 2 3 1014.5 1014.3 0.0
30/07:00pm 19.3 21.1 17.3 88 1.2 W 4 6 2 3 1014.2 1014.0 0.0
30/06:30pm 20.7 22.4 18.1 85 1.6 W 6 7 3 4 1013.9 1013.7 0.0
30/06:00pm 22.4 24.3 18.6 79 2.4 NW 6 9 3 5 1013.8 1013.6 0.0
30/05:30pm 23.4 24.9 17.6 70 3.6 WNW 6 9 3 5 1013.7 1013.5 0.0

Other Formats:

Comma delimited format used in spreadsheet applications
http://www.bom.gov.au/fwo/IDW60801/IDW60801.99206.axf

JavaScript Object Notation format (JSON) in row-major order
http://www.bom.gov.au/fwo/IDW60801/IDW60801.99206.json